sensor_id;sensor_type;location;lat;lon;timestamp;pressure;altitude;pressure_sealevel;temperature;humidity
79006;BME280;69202;45.498;-73.582;2023-12-28T00:01:59;101042.78;;;6.62;57.93
79006;BME280;69202;45.498;-73.582;2023-12-28T00:04:25;101050.03;;;6.78;58.37
79006;BME280;69202;45.498;-73.582;2023-12-28T00:06:53;101026.97;;;6.43;58.50
79006;BME280;69202;45.498;-73.582;2023-12-28T00:09:19;100989.34;;;6.27;58.55
79006;BME280;69202;45.498;-73.582;2023-12-28T00:11:45;101051.88;;;6.70;58.68
79006;BME280;69202;45.498;-73.582;2023-12-28T00:14:11;101019.59;;;6.53;58.70
79006;BME280;69202;45.498;-73.582;2023-12-28T00:16:37;100909.72;;;5.85;58.85
79006;BME280;69202;45.498;-73.582;2023-12-28T00:19:03;101030.34;;;6.53;58.62
79006;BME280;69202;45.498;-73.582;2023-12-28T00:21:30;101046.16;;;6.73;59.18
79006;BME280;69202;45.498;-73.582;2023-12-28T00:23:56;100982.97;;;6.44;58.90
79006;BME280;69202;45.498;-73.582;2023-12-28T00:26:22;101009.03;;;6.60;58.91
79006;BME280;69202;45.498;-73.582;2023-12-28T00:28:48;100950.38;;;6.06;59.38
79006;BME280;69202;45.498;-73.582;2023-12-28T00:31:14;101010.19;;;6.49;59.16
79006;BME280;69202;45.498;-73.582;2023-12-28T00:33:40;100918.34;;;6.05;59.22
79006;BME280;69202;45.498;-73.582;2023-12-28T00:36:06;101010.03;;;6.59;59.79
79006;BME280;69202;45.498;-73.582;2023-12-28T00:38:32;100821.91;;;5.37;59.82
79006;BME280;69202;45.498;-73.582;2023-12-28T00:40:58;100964.69;;;6.31;60.22
79006;BME280;69202;45.498;-73.582;2023-12-28T00:43:23;101016.91;;;6.53;60.33
79006;BME280;69202;45.498;-73.582;2023-12-28T00:45:49;100980.44;;;6.34;60.43
79006;BME280;69202;45.498;-73.582;2023-12-28T00:48:15;101016.56;;;6.56;61.33
79006;BME280;69202;45.498;-73.582;2023-12-28T00:50:41;101010.69;;;6.53;61.42
79006;BME280;69202;45.498;-73.582;2023-12-28T00:53:07;101019.75;;;6.52;62.03
79006;BME280;69202;45.498;-73.582;2023-12-28T00:55:33;100984.66;;;6.29;62.36
79006;BME280;69202;45.498;-73.582;2023-12-28T00:57:59;101012.88;;;6.41;63.61
79006;BME280;69202;45.498;-73.582;2023-12-28T01:00:24;100976.91;;;6.18;64.37
79006;BME280;69202;45.498;-73.582;2023-12-28T01:02:50;101013.50;;;6.35;65.25
79006;BME280;69202;45.498;-73.582;2023-12-28T01:05:16;100712.69;;;4.46;65.40
79006;BME280;69202;45.498;-73.582;2023-12-28T01:07:43;101015.84;;;6.22;66.55
79006;BME280;69202;45.498;-73.582;2023-12-28T01:10:09;100897.97;;;5.36;67.06
79006;BME280;69202;45.498;-73.582;2023-12-28T01:12:38;100894.63;;;5.34;67.55
79006;BME280;69202;45.498;-73.582;2023-12-28T01:15:05;100813.16;;;4.84;67.86
79006;BME280;69202;45.498;-73.582;2023-12-28T01:17:33;100803.19;;;4.69;68.25
79006;BME280;69202;45.498;-73.582;2023-12-28T01:19:59;100803.75;;;4.80;68.33
79006;BME280;69202;45.498;-73.582;2023-12-28T01:22:25;100974.41;;;5.74;68.76
79006;BME280;69202;45.498;-73.582;2023-12-28T01:24:51;100749.16;;;4.47;69.30
79006;BME280;69202;45.498;-73.582;2023-12-28T01:27:18;100806.22;;;4.74;69.28
79006;BME280;69202;45.498;-73.582;2023-12-28T01:29:44;100666.41;;;3.94;69.04
79006;BME280;69202;45.498;-73.582;2023-12-28T01:32:10;100793.34;;;4.69;69.45
79006;BME280;69202;45.498;-73.582;2023-12-28T01:34:36;100634.69;;;3.73;69.61
79006;BME280;69202;45.498;-73.582;2023-12-28T01:37:02;100830.91;;;4.85;69.71
79006;BME280;69202;45.498;-73.582;2023-12-28T01:39:28;100768.03;;;4.38;69.67
79006;BME280;69202;45.498;-73.582;2023-12-28T01:41:54;101017.72;;;5.87;69.87
79006;BME280;69202;45.498;-73.582;2023-12-28T01:44:20;100950.97;;;5.50;69.42
79006;BME280;69202;45.498;-73.582;2023-12-28T01:46:46;100838.97;;;4.93;70.31
79006;BME280;69202;45.498;-73.582;2023-12-28T01:49:13;100887.66;;;5.15;69.62
79006;BME280;69202;45.498;-73.582;2023-12-28T01:51:39;100977.78;;;5.42;69.59
79006;BME280;69202;45.498;-73.582;2023-12-28T01:54:05;100818.09;;;4.71;69.39
79006;BME280;69202;45.498;-73.582;2023-12-28T01:56:32;100874.69;;;5.02;69.71
79006;BME280;69202;45.498;-73.582;2023-12-28T01:58:59;100607.38;;;3.35;69.81
79006;BME280;69202;45.498;-73.582;2023-12-28T02:01:25;100654.50;;;3.62;70.00
79006;BME280;69202;45.498;-73.582;2023-12-28T02:03:51;100786.72;;;4.29;70.33
79006;BME280;69202;45.498;-73.582;2023-12-28T02:06:18;100841.72;;;4.76;70.55
79006;BME280;69202;45.498;-73.582;2023-12-28T02:08:47;100828.09;;;4.61;70.65
79006;BME280;69202;45.498;-73.582;2023-12-28T02:11:14;100907.47;;;4.96;70.60
79006;BME280;69202;45.498;-73.582;2023-12-28T02:13:40;100609.91;;;3.19;70.74
79006;BME280;69202;45.498;-73.582;2023-12-28T02:16:11;100985.53;;;5.53;71.19
79006;BME280;69202;45.498;-73.582;2023-12-28T02:18:43;100887.06;;;4.69;70.79
79006;BME280;69202;45.498;-73.582;2023-12-28T02:21:12;100706.63;;;3.84;70.14
79006;BME280;69202;45.498;-73.582;2023-12-28T02:23:38;100699.25;;;3.78;70.87
79006;BME280;69202;45.498;-73.582;2023-12-28T02:26:04;100891.56;;;4.69;70.81
79006;BME280;69202;45.498;-73.582;2023-12-28T02:28:30;100818.03;;;4.37;70.98
79006;BME280;69202;45.498;-73.582;2023-12-28T02:30:56;100639.47;;;3.17;70.93
79006;BME280;69202;45.498;-73.582;2023-12-28T02:33:33;100976.41;;;5.38;71.19
79006;BME280;69202;45.498;-73.582;2023-12-28T02:36:05;100895.56;;;4.90;70.67
79006;BME280;69202;45.498;-73.582;2023-12-28T02:38:36;100754.66;;;3.86;70.86
79006;BME280;69202;45.498;-73.582;2023-12-28T02:41:04;100967.94;;;5.25;70.58
79006;BME280;69202;45.498;-73.582;2023-12-28T02:43:34;100808.91;;;4.22;71.15
79006;BME280;69202;45.498;-73.582;2023-12-28T02:46:00;100857.09;;;4.48;70.48
79006;BME280;69202;45.498;-73.582;2023-12-28T02:48:26;100902.66;;;4.74;70.84
79006;BME280;69202;45.498;-73.582;2023-12-28T02:50:52;100825.66;;;4.06;71.39
79006;BME280;69202;45.498;-73.582;2023-12-28T02:53:18;100570.88;;;2.65;70.94
79006;BME280;69202;45.498;-73.582;2023-12-28T02:55:45;100947.94;;;4.67;71.41
79006;BME280;69202;45.498;-73.582;2023-12-28T02:58:10;100571.94;;;2.54;70.88
79006;BME280;69202;45.498;-73.582;2023-12-28T03:00:36;100767.47;;;3.64;71.10
79006;BME280;69202;45.498;-73.582;2023-12-28T03:03:03;100632.44;;;2.99;71.17
79006;BME280;69202;45.498;-73.582;2023-12-28T03:05:29;100681.78;;;3.12;71.39
79006;BME280;69202;45.498;-73.582;2023-12-28T03:07:55;100652.72;;;3.09;71.29
79006;BME280;69202;45.498;-73.582;2023-12-28T03:10:22;100884.41;;;4.51;71.65
79006;BME280;69202;45.498;-73.582;2023-12-28T03:12:48;100864.69;;;4.52;71.17
79006;BME280;69202;45.498;-73.582;2023-12-28T03:15:15;100823.53;;;4.10;71.75
79006;BME280;69202;45.498;-73.582;2023-12-28T03:17:40;100680.88;;;3.22;71.05
79006;BME280;69202;45.498;-73.582;2023-12-28T03:20:07;100995.78;;;5.06;71.44
79006;BME280;69202;45.498;-73.582;2023-12-28T03:22:33;100783.84;;;4.05;71.67
79006;BME280;69202;45.498;-73.582;2023-12-28T03:24:59;100810.53;;;4.15;71.76
79006;BME280;69202;45.498;-73.582;2023-12-28T03:27:26;100892.78;;;4.74;71.55
79006;BME280;69202;45.498;-73.582;2023-12-28T03:29:52;100677.97;;;3.33;71.27
79006;BME280;69202;45.498;-73.582;2023-12-28T03:32:18;100574.75;;;2.88;71.26
79006;BME280;69202;45.498;-73.582;2023-12-28T03:34:45;100684.09;;;3.43;70.91
79006;BME280;69202;45.498;-73.582;2023-12-28T03:37:11;100821.78;;;4.44;71.16
79006;BME280;69202;45.498;-73.582;2023-12-28T03:39:37;100860.31;;;4.51;70.77
79006;BME280;69202;45.498;-73.582;2023-12-28T03:42:04;100727.66;;;3.79;71.13
79006;BME280;69202;45.498;-73.582;2023-12-28T03:44:30;100595.72;;;3.01;70.60
79006;BME280;69202;45.498;-73.582;2023-12-28T03:46:55;100949.28;;;5.15;70.43
79006;BME280;69202;45.498;-73.582;2023-12-28T03:49:21;100862.22;;;4.59;71.54
79006;BME280;69202;45.498;-73.582;2023-12-28T03:51:49;100916.63;;;4.85;70.89
79006;BME280;69202;45.498;-73.582;2023-12-28T03:54:19;100953.91;;;5.05;70.92
79006;BME280;69202;45.498;-73.582;2023-12-28T03:56:48;100893.09;;;4.71;71.50
79006;BME280;69202;45.498;-73.582;2023-12-28T03:59:14;100828.47;;;4.40;71.30
79006;BME280;69202;45.498;-73.582;2023-12-28T04:01:44;100845.72;;;4.46;70.86
79006;BME280;69202;45.498;-73.582;2023-12-28T04:04:10;100934.09;;;4.98;70.92
79006;BME280;69202;45.498;-73.582;2023-12-28T04:06:37;100814.84;;;4.33;71.32
79006;BME280;69202;45.498;-73.582;2023-12-28T04:09:03;100799.72;;;4.24;70.80
79006;BME280;69202;45.498;-73.582;2023-12-28T04:11:29;100703.09;;;3.58;71.19
79006;BME280;69202;45.498;-73.582;2023-12-28T04:13:55;100778.41;;;3.89;71.57
79006;BME280;69202;45.498;-73.582;2023-12-28T04:16:21;100734.19;;;3.76;71.96
79006;BME280;69202;45.498;-73.582;2023-12-28T04:18:47;100872.97;;;4.67;71.99
79006;BME280;69202;45.498;-73.582;2023-12-28T04:21:13;100865.13;;;4.48;71.67
79006;BME280;69202;45.498;-73.582;2023-12-28T04:23:40;100587.28;;;2.87;70.98
79006;BME280;69202;45.498;-73.582;2023-12-28T04:26:07;100526.34;;;2.65;71.13
79006;BME280;69202;45.498;-73.582;2023-12-28T04:28:33;100916.19;;;4.98;71.75
79006;BME280;69202;45.498;-73.582;2023-12-28T04:31:06;100881.72;;;4.69;71.40
79006;BME280;69202;45.498;-73.582;2023-12-28T04:33:32;100763.94;;;3.99;71.54
79006;BME280;69202;45.498;-73.582;2023-12-28T04:36:03;100733.69;;;3.81;71.81
79006;BME280;69202;45.498;-73.582;2023-12-28T04:38:31;100819.03;;;4.36;71.75
79006;BME280;69202;45.498;-73.582;2023-12-28T04:40:58;100889.59;;;4.79;71.55
79006;BME280;69202;45.498;-73.582;2023-12-28T04:43:25;100861.75;;;4.63;71.83
79006;BME280;69202;45.498;-73.582;2023-12-28T04:45:51;100897.69;;;4.87;71.38
79006;BME280;69202;45.498;-73.582;2023-12-28T04:48:18;100861.13;;;4.70;72.18
79006;BME280;69202;45.498;-73.582;2023-12-28T04:50:49;100734.44;;;3.91;71.72
79006;BME280;69202;45.498;-73.582;2023-12-28T04:53:15;100855.50;;;4.81;71.26
79006;BME280;69202;45.498;-73.582;2023-12-28T04:55:41;100870.63;;;4.90;72.06
79006;BME280;69202;45.498;-73.582;2023-12-28T04:58:07;100847.91;;;4.76;71.89
79006;BME280;69202;45.498;-73.582;2023-12-28T05:00:33;100861.72;;;4.89;71.95
79006;BME280;69202;45.498;-73.582;2023-12-28T05:02:59;100802.94;;;4.54;71.97
79006;BME280;69202;45.498;-73.582;2023-12-28T05:05:25;100833.84;;;4.74;71.94
79006;BME280;69202;45.498;-73.582;2023-12-28T05:07:51;100814.22;;;4.66;72.39
79006;BME280;69202;45.498;-73.582;2023-12-28T05:10:17;100696.50;;;3.96;71.77
79006;BME280;69202;45.498;-73.582;2023-12-28T05:12:43;100772.69;;;4.35;72.22
79006;BME280;69202;45.498;-73.582;2023-12-28T05:15:09;100845.34;;;4.92;72.86
79006;BME280;69202;45.498;-73.582;2023-12-28T05:17:35;100807.66;;;4.60;72.33
79006;BME280;69202;45.498;-73.582;2023-12-28T05:20:01;100808.13;;;4.81;72.82
79006;BME280;69202;45.498;-73.582;2023-12-28T05:22:27;100822.41;;;4.90;72.63
79006;BME280;69202;45.498;-73.582;2023-12-28T05:24:53;100651.41;;;3.75;72.35
79006;BME280;69202;45.498;-73.582;2023-12-28T05:27:19;100537.69;;;3.03;71.86
79006;BME280;69202;45.498;-73.582;2023-12-28T05:29:45;100599.47;;;3.52;72.28
79006;BME280;69202;45.498;-73.582;2023-12-28T05:32:12;100610.84;;;3.54;71.78
79006;BME280;69202;45.498;-73.582;2023-12-28T05:34:38;100708.81;;;4.07;72.20
79006;BME280;69202;45.498;-73.582;2023-12-28T05:37:04;100692.50;;;3.92;72.12
79006;BME280;69202;45.498;-73.582;2023-12-28T05:39:30;100713.16;;;4.08;71.91
79006;BME280;69202;45.498;-73.582;2023-12-28T05:41:56;100769.03;;;4.37;71.68
79006;BME280;69202;45.498;-73.582;2023-12-28T05:44:22;100686.47;;;3.90;71.90
79006;BME280;69202;45.498;-73.582;2023-12-28T05:46:48;100626.19;;;3.52;72.21
79006;BME280;69202;45.498;-73.582;2023-12-28T05:49:14;100728.13;;;4.18;72.36
79006;BME280;69202;45.498;-73.582;2023-12-28T05:51:41;100691.66;;;3.91;72.19
79006;BME280;69202;45.498;-73.582;2023-12-28T05:54:07;100677.03;;;3.78;71.78
79006;BME280;69202;45.498;-73.582;2023-12-28T05:56:33;100630.03;;;3.49;72.43
79006;BME280;69202;45.498;-73.582;2023-12-28T05:58:59;100796.41;;;4.48;72.14
79006;BME280;69202;45.498;-73.582;2023-12-28T06:01:25;100698.69;;;4.18;72.44
79006;BME280;69202;45.498;-73.582;2023-12-28T06:03:53;100607.38;;;3.61;71.74
79006;BME280;69202;45.498;-73.582;2023-12-28T06:06:19;100687.97;;;4.18;71.77
79006;BME280;69202;45.498;-73.582;2023-12-28T06:08:46;100820.41;;;5.00;71.74
79006;BME280;69202;45.498;-73.582;2023-12-28T06:11:12;100790.31;;;4.72;72.05
79006;BME280;69202;45.498;-73.582;2023-12-28T06:13:38;100787.66;;;4.72;71.70
79006;BME280;69202;45.498;-73.582;2023-12-28T06:16:04;100732.16;;;4.48;72.27
79006;BME280;69202;45.498;-73.582;2023-12-28T06:18:30;100772.53;;;4.63;71.46
79006;BME280;69202;45.498;-73.582;2023-12-28T06:20:56;100814.66;;;4.87;71.58
79006;BME280;69202;45.498;-73.582;2023-12-28T06:23:22;100761.78;;;4.55;71.80
79006;BME280;69202;45.498;-73.582;2023-12-28T06:25:48;100685.25;;;4.10;71.54
79006;BME280;69202;45.498;-73.582;2023-12-28T06:28:14;100558.25;;;3.10;71.78
79006;BME280;69202;45.498;-73.582;2023-12-28T06:30:40;100716.94;;;4.23;71.64
79006;BME280;69202;45.498;-73.582;2023-12-28T06:33:06;100745.81;;;4.45;71.82
79006;BME280;69202;45.498;-73.582;2023-12-28T06:35:32;100642.56;;;3.74;71.05
79006;BME280;69202;45.498;-73.582;2023-12-28T06:37:58;100824.81;;;4.75;71.68
79006;BME280;69202;45.498;-73.582;2023-12-28T06:40:25;100820.34;;;4.84;71.90
79006;BME280;69202;45.498;-73.582;2023-12-28T06:42:51;100717.25;;;4.20;71.51
79006;BME280;69202;45.498;-73.582;2023-12-28T06:45:17;100730.94;;;4.17;71.41
79006;BME280;69202;45.498;-73.582;2023-12-28T06:47:43;100720.19;;;4.09;71.43
79006;BME280;69202;45.498;-73.582;2023-12-28T06:50:10;100810.09;;;4.79;71.75
79006;BME280;69202;45.498;-73.582;2023-12-28T06:52:35;100620.13;;;3.67;71.96
79006;BME280;69202;45.498;-73.582;2023-12-28T06:55:01;100422.31;;;2.29;72.04
79006;BME280;69202;45.498;-73.582;2023-12-28T06:57:28;100567.66;;;3.14;71.97
79006;BME280;69202;45.498;-73.582;2023-12-28T06:59:54;100585.53;;;3.40;72.48
79006;BME280;69202;45.498;-73.582;2023-12-28T07:02:20;100444.16;;;2.51;72.42
79006;BME280;69202;45.498;-73.582;2023-12-28T07:04:45;100754.22;;;4.24;71.89
79006;BME280;69202;45.498;-73.582;2023-12-28T07:07:11;100696.78;;;4.11;72.65
79006;BME280;69202;45.498;-73.582;2023-12-28T07:09:38;100558.63;;;3.41;72.28
79006;BME280;69202;45.498;-73.582;2023-12-28T07:12:04;100649.47;;;3.85;72.53
79006;BME280;69202;45.498;-73.582;2023-12-28T07:14:30;100567.91;;;3.29;72.69
79006;BME280;69202;45.498;-73.582;2023-12-28T07:16:56;100566.38;;;3.44;72.25
79006;BME280;69202;45.498;-73.582;2023-12-28T07:19:25;100757.25;;;4.55;72.95
79006;BME280;69202;45.498;-73.582;2023-12-28T07:21:51;100465.38;;;2.78;72.47
79006;BME280;69202;45.498;-73.582;2023-12-28T07:24:17;100420.38;;;2.40;72.05
79006;BME280;69202;45.498;-73.582;2023-12-28T07:26:43;100432.59;;;2.68;71.86
79006;BME280;69202;45.498;-73.582;2023-12-28T07:29:09;100658.84;;;4.07;72.37
79006;BME280;69202;45.498;-73.582;2023-12-28T07:31:34;100713.34;;;4.40;72.62
79006;BME280;69202;45.498;-73.582;2023-12-28T07:34:00;100749.91;;;4.57;72.64
79006;BME280;69202;45.498;-73.582;2023-12-28T07:36:27;100564.66;;;3.43;72.12
79006;BME280;69202;45.498;-73.582;2023-12-28T07:38:52;100640.72;;;4.01;72.03
79006;BME280;69202;45.498;-73.582;2023-12-28T07:41:18;100745.09;;;4.61;72.53
79006;BME280;69202;45.498;-73.582;2023-12-28T07:43:44;100735.88;;;4.63;72.23
79006;BME280;69202;45.498;-73.582;2023-12-28T07:46:10;100500.72;;;3.16;72.47
79006;BME280;69202;45.498;-73.582;2023-12-28T07:48:36;100562.22;;;3.50;71.91
79006;BME280;69202;45.498;-73.582;2023-12-28T07:51:06;100617.09;;;3.88;72.51
79006;BME280;69202;45.498;-73.582;2023-12-28T07:53:32;100646.47;;;4.14;71.99
79006;BME280;69202;45.498;-73.582;2023-12-28T07:55:58;100426.81;;;2.73;72.13
79006;BME280;69202;45.498;-73.582;2023-12-28T07:58:24;100469.38;;;3.00;72.24
79006;BME280;69202;45.498;-73.582;2023-12-28T08:00:50;100663.47;;;4.31;72.51
79006;BME280;69202;45.498;-73.582;2023-12-28T08:03:17;100567.84;;;3.73;72.17
79006;BME280;69202;45.498;-73.582;2023-12-28T08:05:44;100727.72;;;4.73;72.54
79006;BME280;69202;45.498;-73.582;2023-12-28T08:08:10;100546.13;;;3.42;71.67
79006;BME280;69202;45.498;-73.582;2023-12-28T08:10:36;100686.03;;;4.37;71.91
79006;BME280;69202;45.498;-73.582;2023-12-28T08:13:02;100650.25;;;4.03;72.41
79006;BME280;69202;45.498;-73.582;2023-12-28T08:15:28;100428.69;;;2.80;72.40
79006;BME280;69202;45.498;-73.582;2023-12-28T08:17:54;100339.63;;;2.29;72.03
79006;BME280;69202;45.498;-73.582;2023-12-28T08:20:20;100601.22;;;3.95;72.54
79006;BME280;69202;45.498;-73.582;2023-12-28T08:22:46;100347.13;;;2.34;71.65
79006;BME280;69202;45.498;-73.582;2023-12-28T08:25:12;100568.13;;;3.62;72.52
79006;BME280;69202;45.498;-73.582;2023-12-28T08:27:38;100786.16;;;4.78;72.57
79006;BME280;69202;45.498;-73.582;2023-12-28T08:30:05;100674.22;;;4.39;72.47
79006;BME280;69202;45.498;-73.582;2023-12-28T08:32:32;100743.50;;;4.84;72.83
79006;BME280;69202;45.498;-73.582;2023-12-28T08:34:58;100685.25;;;4.44;72.75
79006;BME280;69202;45.498;-73.582;2023-12-28T08:37:24;100654.91;;;4.27;72.19
79006;BME280;69202;45.498;-73.582;2023-12-28T08:39:50;100749.03;;;4.83;72.61
79006;BME280;69202;45.498;-73.582;2023-12-28T08:42:15;100664.63;;;4.37;72.41
79006;BME280;69202;45.498;-73.582;2023-12-28T08:44:41;100671.72;;;4.46;72.51
79006;BME280;69202;45.498;-73.582;2023-12-28T08:47:07;100737.97;;;4.86;72.48
79006;BME280;69202;45.498;-73.582;2023-12-28T08:49:33;100698.88;;;4.59;71.82
79006;BME280;69202;45.498;-73.582;2023-12-28T08:51:59;100475.56;;;3.27;71.86
79006;BME280;69202;45.498;-73.582;2023-12-28T08:54:25;100581.72;;;4.02;71.58
79006;BME280;69202;45.498;-73.582;2023-12-28T08:56:53;100652.47;;;4.42;72.56
79006;BME280;69202;45.498;-73.582;2023-12-28T08:59:19;100653.78;;;4.38;71.66
79006;BME280;69202;45.498;-73.582;2023-12-28T09:01:45;100396.97;;;2.77;72.41
79006;BME280;69202;45.498;-73.582;2023-12-28T09:04:11;100527.69;;;3.57;72.13
79006;BME280;69202;45.498;-73.582;2023-12-28T09:06:37;100654.25;;;4.33;72.11
79006;BME280;69202;45.498;-73.582;2023-12-28T09:09:03;100523.34;;;3.64;72.33
79006;BME280;69202;45.498;-73.582;2023-12-28T09:11:29;100653.22;;;4.26;71.90
79006;BME280;69202;45.498;-73.582;2023-12-28T09:13:55;100674.88;;;4.41;72.34
79006;BME280;69202;45.498;-73.582;2023-12-28T09:16:21;100656.06;;;4.25;71.91
79006;BME280;69202;45.498;-73.582;2023-12-28T09:18:47;100586.66;;;3.89;72.35
79006;BME280;69202;45.498;-73.582;2023-12-28T09:21:13;100658.56;;;4.26;72.71
79006;BME280;69202;45.498;-73.582;2023-12-28T09:23:39;100635.09;;;4.12;72.00
79006;BME280;69202;45.498;-73.582;2023-12-28T09:26:08;100645.47;;;4.15;72.37
79006;BME280;69202;45.498;-73.582;2023-12-28T09:28:34;100676.56;;;4.42;72.69
79006;BME280;69202;45.498;-73.582;2023-12-28T09:31:02;100707.09;;;4.66;72.83
79006;BME280;69202;45.498;-73.582;2023-12-28T09:33:28;100670.16;;;4.35;71.92
79006;BME280;69202;45.498;-73.582;2023-12-28T09:35:54;100609.25;;;3.95;72.27
79006;BME280;69202;45.498;-73.582;2023-12-28T09:38:20;100740.13;;;4.74;72.61
79006;BME280;69202;45.498;-73.582;2023-12-28T09:40:47;100625.28;;;3.95;72.47
79006;BME280;69202;45.498;-73.582;2023-12-28T09:43:31;100621.72;;;4.12;72.18
79006;BME280;69202;45.498;-73.582;2023-12-28T09:46:06;100742.47;;;4.77;72.72
79006;BME280;69202;45.498;-73.582;2023-12-28T09:48:37;100684.06;;;4.39;72.27
79006;BME280;69202;45.498;-73.582;2023-12-28T09:51:06;100573.25;;;3.81;72.25
79006;BME280;69202;45.498;-73.582;2023-12-28T09:53:32;100689.84;;;4.60;72.31
79006;BME280;69202;45.498;-73.582;2023-12-28T09:55:59;100711.84;;;4.80;72.61
79006;BME280;69202;45.498;-73.582;2023-12-28T09:58:25;100697.25;;;4.74;72.50
79006;BME280;69202;45.498;-73.582;2023-12-28T10:00:51;100725.91;;;4.82;72.42
79006;BME280;69202;45.498;-73.582;2023-12-28T10:03:17;100705.63;;;4.79;72.69
79006;BME280;69202;45.498;-73.582;2023-12-28T10:05:44;100702.13;;;4.79;72.36
79006;BME280;69202;45.498;-73.582;2023-12-28T10:08:12;100683.78;;;4.58;72.18
79006;BME280;69202;45.498;-73.582;2023-12-28T10:10:39;100666.19;;;4.39;72.19
79006;BME280;69202;45.498;-73.582;2023-12-28T10:13:08;100770.78;;;4.80;72.74
79006;BME280;69202;45.498;-73.582;2023-12-28T10:15:38;100628.94;;;4.20;72.91
79006;BME280;69202;45.498;-73.582;2023-12-28T10:18:05;100631.09;;;4.16;72.43
79006;BME280;69202;45.498;-73.582;2023-12-28T10:20:31;100604.34;;;4.16;72.00
79006;BME280;69202;45.498;-73.582;2023-12-28T10:22:58;100658.34;;;4.54;71.78
79006;BME280;69202;45.498;-73.582;2023-12-28T10:25:24;100623.97;;;4.33;71.73
79006;BME280;69202;45.498;-73.582;2023-12-28T10:27:51;100712.19;;;4.85;72.02
79006;BME280;69202;45.498;-73.582;2023-12-28T10:30:20;100502.09;;;3.54;71.46
79006;BME280;69202;45.498;-73.582;2023-12-28T10:32:47;100678.66;;;4.64;71.69
79006;BME280;69202;45.498;-73.582;2023-12-28T10:35:13;100591.78;;;4.09;72.28
79006;BME280;69202;45.498;-73.582;2023-12-28T10:37:40;100726.75;;;4.82;71.75
79006;BME280;69202;45.498;-73.582;2023-12-28T10:40:08;100649.41;;;4.29;72.06
79006;BME280;69202;45.498;-73.582;2023-12-28T10:42:50;100639.19;;;4.32;71.50
79006;BME280;69202;45.498;-73.582;2023-12-28T10:45:18;100690.34;;;4.63;72.41
79006;BME280;69202;45.498;-73.582;2023-12-28T10:48:11;100620.25;;;4.26;71.82
79006;BME280;69202;45.498;-73.582;2023-12-28T10:50:49;100678.13;;;4.61;71.29
79006;BME280;69202;45.498;-73.582;2023-12-28T10:58:49;100700.97;;;4.81;72.10
79006;BME280;69202;45.498;-73.582;2023-12-28T11:01:26;100693.09;;;4.80;71.71
79006;BME280;69202;45.498;-73.582;2023-12-28T11:04:10;100660.56;;;4.67;72.21
79006;BME280;69202;45.498;-73.582;2023-12-28T11:06:41;100668.78;;;4.65;72.31
79006;BME280;69202;45.498;-73.582;2023-12-28T11:09:10;100651.03;;;4.64;71.94
79006;BME280;69202;45.498;-73.582;2023-12-28T11:11:38;100677.53;;;4.83;72.04
79006;BME280;69202;45.498;-73.582;2023-12-28T11:14:05;100626.72;;;4.49;72.25
79006;BME280;69202;45.498;-73.582;2023-12-28T11:16:34;100578.78;;;4.22;71.83
79006;BME280;69202;45.498;-73.582;2023-12-28T11:19:04;100655.38;;;4.65;72.04
79006;BME280;69202;45.498;-73.582;2023-12-28T11:21:30;100626.56;;;4.51;71.80
79006;BME280;69202;45.498;-73.582;2023-12-28T11:23:57;100643.31;;;4.53;71.89
79006;BME280;69202;45.498;-73.582;2023-12-28T11:26:24;100691.41;;;4.79;72.40
79006;BME280;69202;45.498;-73.582;2023-12-28T11:28:50;100633.75;;;4.58;71.96
79006;BME280;69202;45.498;-73.582;2023-12-28T11:31:25;100665.97;;;4.75;72.13
79006;BME280;69202;45.498;-73.582;2023-12-28T11:33:52;100528.47;;;3.83;72.12
79006;BME280;69202;45.498;-73.582;2023-12-28T11:36:37;100670.97;;;4.70;72.75
79006;BME280;69202;45.498;-73.582;2023-12-28T11:39:06;100546.22;;;3.92;72.00
79006;BME280;69202;45.498;-73.582;2023-12-28T11:41:33;100651.19;;;4.62;71.85
79006;BME280;69202;45.498;-73.582;2023-12-28T11:44:04;100569.38;;;4.10;72.24
79006;BME280;69202;45.498;-73.582;2023-12-28T11:46:35;100641.28;;;4.55;72.40
79006;BME280;69202;45.498;-73.582;2023-12-28T11:49:06;100642.16;;;4.63;71.75
79006;BME280;69202;45.498;-73.582;2023-12-28T11:51:35;100643.66;;;4.66;71.64
79006;BME280;69202;45.498;-73.582;2023-12-28T11:54:02;100649.03;;;4.66;71.96
79006;BME280;69202;45.498;-73.582;2023-12-28T11:56:29;100506.78;;;3.86;72.36
79006;BME280;69202;45.498;-73.582;2023-12-28T11:58:55;100614.84;;;4.52;71.66
79006;BME280;69202;45.498;-73.582;2023-12-28T12:01:21;100562.94;;;4.28;72.22
79006;BME280;69202;45.498;-73.582;2023-12-28T12:03:48;100657.78;;;4.84;71.86
79006;BME280;69202;45.498;-73.582;2023-12-28T12:06:14;100622.09;;;4.59;72.08
79006;BME280;69202;45.498;-73.582;2023-12-28T12:08:40;100567.91;;;4.23;72.21
79006;BME280;69202;45.498;-73.582;2023-12-28T12:11:07;100665.66;;;4.86;72.36
79006;BME280;69202;45.498;-73.582;2023-12-28T12:13:33;100633.31;;;4.71;71.63
79006;BME280;69202;45.498;-73.582;2023-12-28T12:15:59;100511.13;;;3.87;71.53
79006;BME280;69202;45.498;-73.582;2023-12-28T12:18:33;100501.25;;;3.88;72.39
79006;BME280;69202;45.498;-73.582;2023-12-28T12:20:59;100586.72;;;4.40;72.60
79006;BME280;69202;45.498;-73.582;2023-12-28T12:23:26;100611.06;;;4.71;72.39
79006;BME280;69202;45.498;-73.582;2023-12-28T12:25:52;100620.09;;;4.78;71.96
79006;BME280;69202;45.498;-73.582;2023-12-28T12:28:18;100645.25;;;4.93;71.53
79006;BME280;69202;45.498;-73.582;2023-12-28T12:30:54;100558.28;;;4.39;71.54
79006;BME280;69202;45.498;-73.582;2023-12-28T12:33:25;100617.25;;;4.79;71.55
79006;BME280;69202;45.498;-73.582;2023-12-28T12:35:52;100488.75;;;4.04;71.93
79006;BME280;69202;45.498;-73.582;2023-12-28T12:38:18;100612.59;;;4.81;72.33
79006;BME280;69202;45.498;-73.582;2023-12-28T12:40:44;100563.28;;;4.42;71.87
79006;BME280;69202;45.498;-73.582;2023-12-28T12:43:10;100581.25;;;4.66;72.40
79006;BME280;69202;45.498;-73.582;2023-12-28T12:45:37;100625.00;;;4.90;72.48